Time;durP1;ratioP1;P1;durP2;ratioP2;P2;SDS_P1;SDS_P2;PMS_P1;PMS_P2;Temp;Humidity;BMP_temperature;BMP_pressure;BME280_temperature;BME280_humidity;BME280_pressure;Samples;Min_cycle;Max_cycle;Signal;HPM_P1;HPM_P2
2021/09/16 00:00:41;;;;;;;23.73;14.72;;;;;;;12.22;51.67;100897.91;450014;116;922630;-79
2021/09/16 00:01:44;;;;;;;22.72;12.58;;;;;;;12.25;51.82;100899.36;449182;116;930366;-78
2021/09/16 00:02:48;;;;;;;17.98;12.47;;;;;;;12.30;51.76;100902.27;446945;118;924699;-79
2021/09/16 00:03:51;;;;;;;17.98;12.76;;;;;;;12.34;51.63;100903.54;436437;120;930517;-78
2021/09/16 00:04:55;;;;;;;24.18;12.72;;;;;;;12.38;51.47;100904.77;445699;118;930540;-79
2021/09/16 00:05:59;;;;;;;14.80;11.35;;;;;;;12.42;51.38;100900.53;439096;120;923043;-78
2021/09/16 00:07:03;;;;;;;17.86;11.90;;;;;;;12.46;51.23;100896.29;439943;119;930443;-79
2021/09/16 00:08:06;;;;;;;16.81;10.92;;;;;;;12.50;51.09;100894.82;434239;121;930557;-79
2021/09/16 00:09:10;;;;;;;20.14;12.68;;;;;;;12.54;50.94;100896.89;446558;118;922472;-79
2021/09/16 00:10:15;;;;;;;15.24;11.04;;;;;;;12.57;50.76;100890.13;446256;118;922581;-78
2021/09/16 00:11:19;;;;;;;13.10;11.39;;;;;;;12.59;50.68;100893.48;434275;120;922515;-79
2021/09/16 00:12:22;;;;;;;18.44;11.65;;;;;;;12.62;50.63;100892.22;435802;120;923056;-79
2021/09/16 00:13:26;;;;;;;16.77;11.09;;;;;;;12.63;50.51;100897.45;438685;120;922858;-79
2021/09/16 00:14:29;;;;;;;15.36;11.00;;;;;;;12.64;50.36;100896.39;450765;116;922636;-79
2021/09/16 00:15:33;;;;;;;12.44;10.13;;;;;;;12.65;50.18;100892.61;450121;116;924284;-79
2021/09/16 00:16:37;;;;;;;17.91;11.81;;;;;;;12.66;50.14;100898.92;448987;116;923031;-79
2021/09/16 00:17:41;;;;;;;13.75;11.05;;;;;;;12.66;49.97;100904.39;449382;116;922678;-79
2021/09/16 00:18:44;;;;;;;17.90;11.62;;;;;;;12.63;49.81;100902.92;450525;116;922929;-79
2021/09/16 00:19:48;;;;;;;16.05;11.44;;;;;;;12.60;49.77;100900.64;450277;116;930355;-79
2021/09/16 00:20:52;;;;;;;17.04;12.05;;;;;;;12.54;49.82;100896.89;448356;116;923115;-79
2021/09/16 00:21:55;;;;;;;17.69;12.28;;;;;;;12.49;49.82;100904.08;450558;116;922730;-79
2021/09/16 00:22:59;;;;;;;19.42;11.44;;;;;;;12.43;49.77;100904.95;448503;116;922703;-79
2021/09/16 00:24:03;;;;;;;18.90;12.70;;;;;;;12.34;49.73;100903.54;450060;116;922553;-77
2021/09/16 00:25:07;;;;;;;24.06;13.91;;;;;;;12.25;49.69;100900.20;453639;116;922446;-78
2021/09/16 00:26:13;;;;;;;18.57;13.66;;;;;;;12.16;49.59;100897.94;461511;114;923241;-80
2021/09/16 00:27:17;;;;;;;19.16;13.18;;;;;;;12.07;49.72;100895.44;463518;113;923021;-78
2021/09/16 00:28:20;;;;;;;23.86;14.12;;;;;;;12.00;49.81;100905.58;462925;114;922611;-79
2021/09/16 00:29:23;;;;;;;29.79;13.88;;;;;;;11.94;49.89;100903.71;463765;114;922896;-79
2021/09/16 00:30:28;;;;;;;22.96;14.92;;;;;;;11.87;49.99;100905.63;462794;113;922930;-79
2021/09/16 00:31:31;;;;;;;17.66;13.62;;;;;;;11.81;50.05;100905.64;462058;114;923124;-79
2021/09/16 00:32:34;;;;;;;21.23;13.33;;;;;;;11.75;50.16;100907.33;462810;113;930568;-78
2021/09/16 00:33:38;;;;;;;19.44;13.02;;;;;;;11.69;50.27;100906.27;463194;113;922482;-80
2021/09/16 00:34:42;;;;;;;23.61;15.40;;;;;;;11.64;50.36;100911.53;463333;114;930535;-79
2021/09/16 00:35:45;;;;;;;26.59;15.21;;;;;;;11.58;50.48;100909.66;463303;114;922576;-79
2021/09/16 00:36:49;;;;;;;21.57;13.23;;;;;;;11.52;50.62;100912.42;463558;114;931054;-79
2021/09/16 00:37:53;;;;;;;21.04;14.90;;;;;;;11.46;50.72;100914.11;463259;113;922544;-79
2021/09/16 00:38:56;;;;;;;20.95;13.28;;;;;;;11.41;50.89;100916.61;463212;114;930394;-79
2021/09/16 00:40:00;;;;;;;26.41;13.98;;;;;;;11.38;50.95;100917.05;463441;114;930573;-79
2021/09/16 00:41:04;;;;;;;22.43;13.51;;;;;;;11.33;51.02;100911.39;462164;114;930479;-78
2021/09/16 00:42:08;;;;;;;21.35;12.94;;;;;;;11.28;51.16;100912.03;463921;114;923100;-79
2021/09/16 00:43:11;;;;;;;22.59;13.08;;;;;;;11.24;51.26;100910.78;463062;113;922708;-79
2021/09/16 00:44:15;;;;;;;21.94;12.74;;;;;;;11.20;51.33;100914.95;461466;114;923065;-79
2021/09/16 00:45:18;;;;;;;19.44;11.69;;;;;;;11.18;51.39;100914.34;463827;114;930508;-79
2021/09/16 00:46:23;;;;;;;16.83;11.74;;;;;;;11.14;51.38;100915.80;464362;114;926059;-78
2021/09/16 00:47:27;;;;;;;18.75;11.64;;;;;;;11.12;51.44;100914.34;462889;113;922174;-78
2021/09/16 00:48:30;;;;;;;17.32;11.31;;;;;;;11.08;51.47;100911.17;464121;114;930792;-79
2021/09/16 00:49:34;;;;;;;18.48;10.45;;;;;;;11.06;51.53;100907.84;463257;113;922393;-78
2021/09/16 00:50:39;;;;;;;14.62;11.39;;;;;;;11.06;51.64;100901.53;463746;114;923296;-79
2021/09/16 00:51:46;;;;;;;22.21;11.24;;;;;;;11.05;51.67;100905.31;464009;114;922445;-79
2021/09/16 00:52:50;;;;;;;18.88;12.51;;;;;;;11.04;51.72;100911.81;464666;114;930216;-79
2021/09/16 00:53:55;;;;;;;12.73;10.78;;;;;;;11.03;51.80;100910.97;463413;113;922631;-79
2021/09/16 00:55:01;;;;;;;13.43;10.98;;;;;;;11.01;51.85;100904.91;461974;114;930344;-79
2021/09/16 00:56:07;;;;;;;16.05;10.99;;;;;;;11.01;51.96;100902.17;463391;114;922607;-78
2021/09/16 00:57:14;;;;;;;19.53;11.54;;;;;;;11.00;51.97;100903.22;462498;113;922643;-79
2021/09/16 00:58:20;;;;;;;14.95;11.05;;;;;;;11.00;52.04;100910.56;464283;113;922802;-79
2021/09/16 00:59:25;;;;;;;21.49;11.55;;;;;;;10.98;52.09;100902.58;462030;114;922555;-79
2021/09/16 01:00:29;;;;;;;14.01;11.71;;;;;;;10.98;52.19;100902.58;463301;112;922513;-78
2021/09/16 01:01:33;;;;;;;18.76;11.02;;;;;;;10.98;52.28;100899.84;462118;114;923007;-78
2021/09/16 01:02:36;;;;;;;17.76;11.63;;;;;;;10.99;52.23;100903.41;464723;114;922493;-79
2021/09/16 01:03:40;;;;;;;16.43;10.88;;;;;;;11.00;52.35;100908.67;463324;113;922990;-79
2021/09/16 01:04:43;;;;;;;26.93;10.35;;;;;;;11.02;52.37;100909.31;463669;113;930316;-79
2021/09/16 01:05:48;;;;;;;20.39;10.50;;;;;;;11.04;52.39;100909.08;464026;113;923103;-79
2021/09/16 01:06:52;;;;;;;19.20;10.81;;;;;;;11.07;52.52;100906.80;462883;114;922844;-79
2021/09/16 01:07:59;;;;;;;17.76;10.26;;;;;;;11.11;52.53;100910.77;457083;115;923056;-78
2021/09/16 01:09:02;;;;;;;12.49;9.38;;;;;;;11.15;52.52;100913.91;458071;114;923318;-78
2021/09/16 01:10:08;;;;;;;14.76;10.36;;;;;;;11.18;52.55;100911.62;464395;114;922611;-79
2021/09/16 01:11:12;;;;;;;14.74;10.12;;;;;;;11.24;52.55;100910.78;462619;113;922636;-79
2021/09/16 01:12:15;;;;;;;13.73;10.13;;;;;;;11.28;52.49;100916.64;463154;114;923137;-78
2021/09/16 01:13:19;;;;;;;13.76;10.19;;;;;;;11.30;52.37;100915.36;463051;114;930443;-78
2021/09/16 01:14:24;;;;;;;18.97;9.81;;;;;;;11.32;52.39;100911.59;463350;114;922905;-78
2021/09/16 01:15:28;;;;;;;15.16;9.66;;;;;;;11.35;52.35;100911.19;463721;114;923050;-78
2021/09/16 01:16:31;;;;;;;17.66;10.14;;;;;;;11.34;52.31;100907.61;455559;116;922557;-78
2021/09/16 01:17:35;;;;;;;11.51;8.99;;;;;;;11.35;52.30;100911.19;456217;114;923197;-78
2021/09/16 01:18:39;;;;;;;12.28;9.11;;;;;;;11.34;52.33;100917.69;463510;114;930486;-78
2021/09/16 01:19:43;;;;;;;15.02;8.82;;;;;;;11.33;52.35;100916.00;464229;113;922545;-79
2021/09/16 01:20:47;;;;;;;11.20;8.36;;;;;;;11.31;52.42;100908.02;464885;114;922351;-81
2021/09/16 01:21:51;;;;;;;15.60;8.76;;;;;;;11.32;52.50;100917.89;464667;114;922371;-80
2021/09/16 01:22:55;;;;;;;12.78;9.34;;;;;;;11.32;52.44;100917.89;462783;114;928661;-79
2021/09/16 01:23:58;;;;;;;17.35;9.35;;;;;;;11.30;52.35;100915.36;464175;114;922830;-78
2021/09/16 01:25:04;;;;;;;13.00;9.45;;;;;;;11.27;52.27;100915.80;463962;113;923140;-78
2021/09/16 01:26:07;;;;;;;14.07;9.34;;;;;;;11.25;52.32;100922.51;465446;113;930115;-79
2021/09/16 01:27:11;;;;;;;16.46;10.56;;;;;;;11.23;52.40;100920.02;466460;113;922130;-79
2021/09/16 01:28:14;;;;;;;16.73;10.72;;;;;;;11.23;52.27;100919.17;466182;113;922617;-77
2021/09/16 01:29:18;;;;;;;15.60;11.04;;;;;;;11.18;52.21;100919.81;464981;113;922456;-77
2021/09/16 01:30:24;;;;;;;12.78;9.27;;;;;;;11.17;52.18;100920.85;463762;113;930324;-78
2021/09/16 01:31:35;;;;;;;12.76;11.18;;;;;;;11.17;52.20;100918.13;464898;113;922510;-78
2021/09/16 01:32:39;;;;;;;18.81;10.87;;;;;;;11.16;52.23;100921.05;464704;113;922523;-77
2021/09/16 01:33:43;;;;;;;17.26;11.42;;;;;;;11.13;52.29;100918.76;465064;113;922354;-78
2021/09/16 01:34:46;;;;;;;16.39;12.19;;;;;;;11.11;52.34;100916.23;464628;113;922831;-78
2021/09/16 01:35:50;;;;;;;20.01;12.76;;;;;;;11.11;52.31;100920.84;463314;113;922820;-78
2021/09/16 01:36:54;;;;;;;23.16;13.21;;;;;;;11.10;52.27;100920.00;462783;113;930364;-78
2021/09/16 01:37:58;;;;;;;16.24;13.12;;;;;;;11.11;52.32;100921.69;465307;113;922492;-78
2021/09/16 01:39:05;;;;;;;21.24;13.86;;;;;;;11.12;52.33;100920.64;464733;113;930991;-78
2021/09/16 01:40:11;;;;;;;18.52;13.14;;;;;;;11.14;52.31;100929.44;463911;113;923119;-79
2021/09/16 01:41:14;;;;;;;19.11;12.57;;;;;;;11.16;52.31;100926.52;464143;113;923088;-77
2021/09/16 01:42:18;;;;;;;18.77;12.70;;;;;;;11.18;52.17;100924.42;463987;113;922629;-78
2021/09/16 01:43:21;;;;;;;19.12;11.28;;;;;;;11.20;52.03;100925.03;463666;113;922683;-79
2021/09/16 01:44:24;;;;;;;23.04;10.81;;;;;;;11.22;51.94;100929.25;464813;113;922592;-77
2021/09/16 01:45:28;;;;;;;19.94;11.87;;;;;;;11.22;51.83;100926.52;464351;113;922708;-78
2021/09/16 01:46:33;;;;;;;21.18;10.51;;;;;;;11.25;51.90;100936.16;465546;113;922854;-78
2021/09/16 01:47:36;;;;;;;17.49;10.13;;;;;;;11.27;51.75;100931.34;464285;113;922575;-78
2021/09/16 01:48:40;;;;;;;11.49;9.01;;;;;;;11.28;51.64;100928.41;464020;113;922858;-78
2021/09/16 01:49:43;;;;;;;16.89;9.13;;;;;;;11.30;51.53;100933.66;465307;113;922575;-78
2021/09/16 01:50:48;;;;;;;11.74;8.65;;;;;;;11.30;51.40;100939.13;464367;113;922553;-79
2021/09/16 01:51:52;;;;;;;13.74;7.35;;;;;;;11.30;51.28;100944.58;465781;113;930562;-78
2021/09/16 01:52:55;;;;;;;13.90;8.08;;;;;;;11.27;51.19;100940.37;463592;113;922649;-80
2021/09/16 01:53:59;;;;;;;16.36;7.92;;;;;;;11.26;51.10;100941.41;463320;113;930502;-79
2021/09/16 01:55:03;;;;;;;11.59;7.87;;;;;;;11.22;50.95;100936.59;464226;113;930300;-79
2021/09/16 01:56:09;;;;;;;8.96;6.82;;;;;;;11.22;50.95;100936.59;463618;113;922480;-77
2021/09/16 01:57:12;;;;;;;12.98;7.13;;;;;;;11.22;50.95;100942.89;463195;113;922615;-79
2021/09/16 01:58:15;;;;;;;12.41;7.05;;;;;;;11.23;50.79;100941.84;465001;113;930604;-79
2021/09/16 01:59:19;;;;;;;9.25;6.47;;;;;;;11.23;50.58;100941.84;464959;113;922675;-79
2021/09/16 02:00:23;;;;;;;11.98;6.42;;;;;;;11.23;50.40;100941.84;464654;112;922405;-79
2021/09/16 02:01:27;;;;;;;13.15;7.04;;;;;;;11.23;50.44;100941.84;465204;113;923002;-78
2021/09/16 02:02:30;;;;;;;9.62;6.68;;;;;;;11.23;50.40;100947.30;463545;113;930565;-78
2021/09/16 02:03:35;;;;;;;11.68;7.14;;;;;;;11.24;50.26;100938.08;463279;113;930608;-78
2021/09/16 02:04:38;;;;;;;11.71;6.82;;;;;;;11.22;50.12;100934.70;464786;113;923048;-79
2021/09/16 02:05:41;;;;;;;10.34;6.66;;;;;;;11.18;50.08;100933.45;462435;113;922826;-79
2021/09/16 02:06:46;;;;;;;13.13;6.19;;;;;;;11.16;50.11;100940.16;463814;113;922750;-79
2021/09/16 02:07:50;;;;;;;12.18;6.72;;;;;;;11.12;50.04;100939.75;464824;113;923032;-78
2021/09/16 02:08:53;;;;;;;9.02;6.41;;;;;;;11.09;50.01;100934.69;463665;113;922985;-79
2021/09/16 02:09:57;;;;;;;11.36;6.59;;;;;;;11.06;49.96;100937.85;465649;113;930632;-79
2021/09/16 02:11:01;;;;;;;7.90;6.16;;;;;;;11.05;49.98;100946.24;463391;113;923304;-78
2021/09/16 02:12:05;;;;;;;9.43;6.96;;;;;;;11.03;50.01;100938.25;463746;113;922676;-78
2021/09/16 02:13:08;;;;;;;11.55;6.94;;;;;;;11.02;49.98;100938.48;465881;113;922281;-78
2021/09/16 02:14:12;;;;;;;13.54;6.92;;;;;;;11.00;50.00;100938.69;464358;113;922514;-79
2021/09/16 02:15:15;;;;;;;9.43;6.08;;;;;;;10.99;49.98;100939.73;456415;115;930624;-80
2021/09/16 02:16:19;;;;;;;14.01;7.17;;;;;;;10.99;50.02;100947.91;457092;113;922511;-79
2021/09/16 02:17:22;;;;;;;14.01;6.93;;;;;;;11.00;50.11;100941.41;465601;113;930711;-79
2021/09/16 02:18:26;;;;;;;8.78;6.99;;;;;;;11.03;50.09;100940.14;463854;113;930425;-79
2021/09/16 02:19:29;;;;;;;17.26;7.29;;;;;;;11.03;50.20;100938.25;463429;113;922565;-80
2021/09/16 02:20:34;;;;;;;10.15;6.73;;;;;;;11.05;50.22;100938.05;465076;112;930299;-79
2021/09/16 02:21:38;;;;;;;10.48;7.64;;;;;;;11.06;50.25;100939.73;464627;113;922377;-79
2021/09/16 02:22:42;;;;;;;17.48;8.40;;;;;;;11.07;50.35;100945.00;464551;113;930283;-79
2021/09/16 02:23:46;;;;;;;14.84;8.76;;;;;;;11.10;50.38;100940.99;466123;113;930367;-79
2021/09/16 02:24:50;;;;;;;14.85;8.83;;;;;;;11.09;50.26;100942.03;464616;113;930040;-78
2021/09/16 02:25:53;;;;;;;10.46;7.82;;;;;;;11.07;50.20;100942.27;462433;114;930230;-79
2021/09/16 02:26:58;;;;;;;11.57;8.54;;;;;;;11.03;50.25;100945.59;461754;113;922655;-79
2021/09/16 02:28:02;;;;;;;16.86;8.32;;;;;;;11.01;50.40;100942.26;463598;113;922495;-79
2021/09/16 02:29:05;;;;;;;14.96;8.01;;;;;;;11.00;50.54;100946.03;463331;113;930318;-78
2021/09/16 02:30:09;;;;;;;11.54;7.65;;;;;;;11.00;50.66;100944.14;462059;114;930321;-78
2021/09/16 02:31:13;;;;;;;11.88;6.60;;;;;;;11.01;50.70;100940.38;440808;118;922528;-78
2021/09/16 02:32:17;;;;;;;15.22;6.72;;;;;;;11.04;50.56;100941.83;462723;113;923222;-79
2021/09/16 02:33:20;;;;;;;11.26;6.19;;;;;;;11.05;50.49;100946.24;463805;114;922440;-79
2021/09/16 02:34:23;;;;;;;10.74;6.63;;;;;;;11.03;50.38;100938.25;452247;115;923146;-78
2021/09/16 02:35:27;;;;;;;16.07;6.39;;;;;;;11.04;50.37;100937.21;453390;114;923117;-78
2021/09/16 02:36:33;;;;;;;12.64;6.69;;;;;;;11.05;50.28;100938.89;462337;114;930451;-79
2021/09/16 02:37:37;;;;;;;15.82;7.24;;;;;;;11.07;50.21;100938.70;464087;113;930170;-80
2021/09/16 02:38:41;;;;;;;18.19;6.51;;;;;;;11.07;50.24;100947.73;462174;113;922548;-79
2021/09/16 02:39:44;;;;;;;11.71;6.55;;;;;;;11.08;50.25;100945.84;462696;114;922984;-79
2021/09/16 02:40:48;;;;;;;13.11;6.15;;;;;;;11.08;50.20;100945.84;451725;114;930595;-78
2021/09/16 02:41:51;;;;;;;10.48;6.08;;;;;;;11.10;50.12;100946.45;454721;114;930566;-79
2021/09/16 02:42:55;;;;;;;20.19;7.31;;;;;;;11.10;50.09;100938.27;463034;114;930567;-78
2021/09/16 02:43:58;;;;;;;15.81;6.59;;;;;;;11.09;50.09;100942.03;463413;114;922991;-78
2021/09/16 02:45:02;;;;;;;14.77;7.02;;;;;;;11.07;50.11;100938.70;462440;114;930485;-78
2021/09/16 02:46:06;;;;;;;14.18;6.52;;;;;;;11.06;50.10;100940.58;463547;114;922943;-79
2021/09/16 02:47:09;;;;;;;15.11;7.02;;;;;;;11.04;50.12;100941.83;462661;114;922577;-78
2021/09/16 02:48:13;;;;;;;11.39;7.46;;;;;;;11.01;50.18;100944.98;463499;114;922926;-77
2021/09/16 02:49:17;;;;;;;11.83;7.15;;;;;;;10.96;50.27;100945.62;462906;114;930421;-79
2021/09/16 02:50:20;;;;;;;12.46;6.91;;;;;;;10.94;50.36;100950.43;462644;113;930012;-79
2021/09/16 02:51:24;;;;;;;11.63;6.94;;;;;;;10.91;50.44;100947.29;462927;114;922648;-79
2021/09/16 02:52:27;;;;;;;9.52;7.34;;;;;;;10.88;50.55;100952.10;462804;114;930261;-78
2021/09/16 02:53:31;;;;;;;13.86;8.12;;;;;;;10.87;50.66;100957.75;462011;114;923069;-78
2021/09/16 02:54:35;;;;;;;10.44;7.15;;;;;;;10.84;50.71;100956.30;463194;114;923172;-79
2021/09/16 02:55:38;;;;;;;11.46;7.43;;;;;;;10.81;50.77;100953.13;462490;114;923010;-79
2021/09/16 02:56:43;;;;;;;11.93;8.24;;;;;;;10.79;50.87;100952.52;463117;114;922546;-78
2021/09/16 02:57:47;;;;;;;11.50;7.81;;;;;;;10.75;50.96;100954.80;463422;112;923001;-79
2021/09/16 02:58:51;;;;;;;16.36;8.95;;;;;;;10.73;51.04;100959.64;462506;114;930102;-79
2021/09/16 02:59:54;;;;;;;15.24;8.39;;;;;;;10.72;51.08;100954.38;463194;112;923067;-79
2021/09/16 03:00:58;;;;;;;14.86;8.16;;;;;;;10.71;51.12;100955.42;461725;113;930140;-79
2021/09/16 03:02:01;;;;;;;15.05;8.90;;;;;;;10.71;51.10;100952.69;453932;116;930258;-78
2021/09/16 03:03:06;;;;;;;15.10;8.58;;;;;;;10.69;51.10;100952.92;463714;114;922974;-76
2021/09/16 03:04:10;;;;;;;13.54;8.23;;;;;;;10.67;51.13;100956.89;463477;114;923018;-78
2021/09/16 03:05:14;;;;;;;11.51;8.78;;;;;;;10.64;51.17;100958.13;463099;114;923113;-80
2021/09/16 03:06:18;;;;;;;18.24;8.70;;;;;;;10.61;51.23;100955.83;461986;114;930383;-77
2021/09/16 03:07:21;;;;;;;14.14;8.77;;;;;;;10.59;51.31;100957.06;464066;113;922974;-79
2021/09/16 03:08:24;;;;;;;16.23;8.38;;;;;;;10.56;51.35;100954.77;456736;114;922557;-78
2021/09/16 03:09:27;;;;;;;13.34;8.51;;;;;;;10.55;51.40;100955.80;457761;114;923185;-79
2021/09/16 03:10:32;;;;;;;15.45;8.91;;;;;;;10.52;51.44;100959.80;465011;114;922451;-78
2021/09/16 03:11:35;;;;;;;12.41;8.39;;;;;;;10.50;51.53;100958.31;462807;113;922275;-79
2021/09/16 03:12:40;;;;;;;14.91;8.96;;;;;;;10.48;51.61;100960.38;463578;113;922524;-78
2021/09/16 03:13:44;;;;;;;16.71;9.39;;;;;;;10.47;51.67;100956.00;462912;113;930431;-78
2021/09/16 03:14:47;;;;;;;12.76;9.13;;;;;;;10.48;51.67;100954.94;464353;114;923149;-79
2021/09/16 03:15:51;;;;;;;14.56;9.13;;;;;;;10.48;51.77;100949.48;463792;114;930030;-79
2021/09/16 03:16:55;;;;;;;16.81;9.08;;;;;;;10.51;51.77;100951.81;463332;114;922423;-78
2021/09/16 03:17:59;;;;;;;15.83;8.94;;;;;;;10.52;51.77;100957.07;463755;113;930247;-78
2021/09/16 03:19:02;;;;;;;17.52;8.91;;;;;;;10.58;51.76;100958.98;462603;114;930382;-78
2021/09/16 03:20:07;;;;;;;14.30;8.95;;;;;;;10.62;51.65;100953.94;462768;113;925136;-79
2021/09/16 03:21:11;;;;;;;21.51;9.32;;;;;;;10.66;51.60;100952.47;461525;114;922681;-79
2021/09/16 03:22:14;;;;;;;20.46;9.26;;;;;;;10.70;51.54;100965.48;463317;113;922424;-78
2021/09/16 03:23:18;;;;;;;17.57;9.21;;;;;;;10.73;51.43;100966.98;462352;113;922573;-79
2021/09/16 03:24:22;;;;;;;18.39;9.65;;;;;;;10.73;51.31;100961.52;462070;113;930422;-78
2021/09/16 03:25:25;;;;;;;17.81;9.76;;;;;;;10.73;51.22;100969.70;460396;114;922973;-81
2021/09/16 03:26:30;;;;;;;11.44;8.58;;;;;;;10.71;51.17;100963.60;455403;114;930512;-77
2021/09/16 03:27:34;;;;;;;17.65;8.31;;;;;;;10.69;51.20;100969.28;455396;115;922565;-78
2021/09/16 03:28:40;;;;;;;20.34;9.13;;;;;;;10.68;51.22;100964.03;455206;115;930601;-79
2021/09/16 03:29:43;;;;;;;13.98;8.57;;;;;;;10.67;51.26;100968.64;455956;115;922994;-79
2021/09/16 03:30:47;;;;;;;16.51;9.02;;;;;;;10.69;51.33;100969.28;458374;115;922533;-77
2021/09/16 03:31:52;;;;;;;21.21;8.55;;;;;;;10.69;51.33;100969.28;455255;114;922435;-78
2021/09/16 03:32:58;;;;;;;14.65;8.87;;;;;;;10.74;51.25;100974.12;455726;115;930225;-79
2021/09/16 03:34:01;;;;;;;13.69;7.93;;;;;;;10.76;51.17;100966.55;454855;115;930398;-79
2021/09/16 03:35:08;;;;;;;23.77;8.32;;;;;;;10.76;51.13;100972.00;454432;115;922491;-78
2021/09/16 03:36:13;;;;;;;15.13;7.79;;;;;;;10.75;51.07;100975.80;455040;115;922923;-78
2021/09/16 03:37:16;;;;;;;22.18;8.37;;;;;;;10.73;51.07;100981.45;452672;113;923140;-79
2021/09/16 03:38:20;;;;;;;17.32;8.61;;;;;;;10.73;51.06;100977.89;455673;113;930311;-79
2021/09/16 03:39:23;;;;;;;17.52;8.94;;;;;;;10.71;51.06;100982.70;455284;115;930408;-77
2021/09/16 03:40:29;;;;;;;15.44;9.30;;;;;;;10.71;51.11;100986.27;455235;115;922999;-78
2021/09/16 03:41:32;;;;;;;38.55;9.61;;;;;;;10.75;51.11;100986.72;455599;113;922866;-78
2021/09/16 03:42:35;;;;;;;13.40;8.85;;;;;;;10.77;51.05;100984.60;456742;115;922615;-78
2021/09/16 03:43:39;;;;;;;19.66;8.76;;;;;;;10.77;50.90;100982.72;456836;113;923947;-78
2021/09/16 03:44:42;;;;;;;15.19;8.76;;;;;;;10.78;50.88;100986.28;454074;115;930319;-78
2021/09/16 03:45:46;;;;;;;13.25;7.88;;;;;;;10.78;50.88;100987.13;454851;115;922426;-77
2021/09/16 03:46:53;;;;;;;53.16;10.61;;;;;;;10.78;50.90;100992.59;453995;115;922541;-79
2021/09/16 03:47:55;;;;;;;45.71;10.62;;;;;;;10.80;50.97;100984.20;452175;115;923498;-79
2021/09/16 03:48:58;;;;;;;32.63;9.53;;;;;;;10.83;50.90;100989.23;454941;115;922989;-80
2021/09/16 03:50:02;;;;;;;18.31;8.41;;;;;;;10.86;50.87;100992.38;455591;115;922693;-78
2021/09/16 03:51:06;;;;;;;27.00;9.44;;;;;;;10.89;50.80;100991.14;452794;115;922684;-78
2021/09/16 03:52:11;;;;;;;325.26;25.91;;;;;;;10.91;50.78;100993.67;453763;114;923342;-78
2021/09/16 03:53:15;;;;;;;140.35;16.29;;;;;;;10.92;50.81;100985.25;454213;115;930132;-78
2021/09/16 03:54:19;;;;;;;48.72;8.95;;;;;;;11.00;50.85;100989.69;452323;113;930517;-79
2021/09/16 03:55:23;;;;;;;16.71;8.36;;;;;;;11.00;50.85;100989.69;453706;115;922451;-78
2021/09/16 03:56:26;;;;;;;28.94;9.88;;;;;;;11.03;50.68;100986.53;444331;117;930443;-79
2021/09/16 03:57:30;;;;;;;26.51;12.43;;;;;;;11.06;50.65;100988.86;448832;115;922873;-76
2021/09/16 03:58:34;;;;;;;24.84;15.25;;;;;;;11.10;50.64;100990.95;455855;115;930704;-78
2021/09/16 03:59:38;;;;;;;17.67;11.19;;;;;;;11.14;50.63;100988.64;456712;113;922446;-78
2021/09/16 04:00:42;;;;;;;14.16;7.89;;;;;;;11.18;50.56;100989.92;454174;115;930285;-79
2021/09/16 04:01:48;;;;;;;20.37;8.62;;;;;;;11.23;50.51;100990.98;452768;115;930354;-75
2021/09/16 04:02:52;;;;;;;21.74;8.65;;;;;;;11.29;50.41;100992.03;455566;115;922538;-79
2021/09/16 04:03:55;;;;;;;17.04;9.17;;;;;;;11.34;50.25;100994.97;454985;114;930483;-78
2021/09/16 04:04:59;;;;;;;17.77;9.48;;;;;;;11.38;50.07;100989.92;456785;114;923207;-78
2021/09/16 04:06:02;;;;;;;22.39;8.56;;;;;;;11.39;49.93;100984.26;457268;114;930297;-79
2021/09/16 04:07:06;;;;;;;17.26;9.34;;;;;;;11.39;49.90;100986.14;454913;115;930300;-79
2021/09/16 04:08:09;;;;;;;17.23;8.38;;;;;;;11.38;49.96;100988.03;454759;115;930345;-76
2021/09/16 04:09:13;;;;;;;14.63;8.45;;;;;;;11.40;50.07;100987.83;456052;115;930409;-78
2021/09/16 04:10:17;;;;;;;20.68;9.49;;;;;;;11.39;50.06;100988.88;450161;117;923201;-80
2021/09/16 04:11:20;;;;;;;20.17;9.86;;;;;;;11.38;49.97;100987.19;449818;115;922638;-78
2021/09/16 04:12:24;;;;;;;17.26;9.76;;;;;;;11.37;50.04;100986.34;453449;115;930262;-76
2021/09/16 04:13:27;;;;;;;20.74;9.99;;;;;;;11.38;50.06;100984.46;453425;113;922583;-77
2021/09/16 04:14:31;;;;;;;19.86;9.95;;;;;;;11.38;50.07;100995.38;456442;115;922452;-78
2021/09/16 04:15:35;;;;;;;21.43;9.41;;;;;;;11.38;50.16;100989.92;455504;113;923128;-78
2021/09/16 04:16:39;;;;;;;22.79;9.28;;;;;;;11.40;50.17;100996.02;457336;115;922681;-80
2021/09/16 04:17:44;;;;;;;27.52;9.93;;;;;;;11.43;50.10;101001.05;454568;115;922342;-80
2021/09/16 04:18:49;;;;;;;23.97;10.29;;;;;;;11.43;50.10;101001.05;455025;115;930544;-80
2021/09/16 04:19:53;;;;;;;28.04;10.96;;;;;;;11.44;50.29;100995.39;455132;115;922709;-81
2021/09/16 04:20:58;;;;;;;26.99;9.22;;;;;;;11.48;50.32;100999.37;456432;114;922924;-78
2021/09/16 04:22:05;;;;;;;20.90;9.88;;;;;;;11.50;50.19;100991.81;454969;114;923193;-79
2021/09/16 04:23:08;;;;;;;22.02;10.56;;;;;;;11.51;50.00;100993.50;455346;114;922626;-81
2021/09/16 04:24:13;;;;;;;15.41;8.39;;;;;;;11.50;49.97;100996.44;455215;113;922806;-80
2021/09/16 04:25:17;;;;;;;19.51;8.97;;;;;;;11.51;49.92;100998.12;454427;114;922673;-80
2021/09/16 04:26:23;;;;;;;29.69;9.71;;;;;;;11.49;49.92;100995.59;462000;113;922995;-78
2021/09/16 04:27:27;;;;;;;24.44;9.13;;;;;;;11.49;49.97;100994.75;462943;113;922861;-78
2021/09/16 04:28:30;;;;;;;31.53;11.54;;;;;;;11.50;50.08;100999.17;464156;113;922845;-76
2021/09/16 04:29:33;;;;;;;44.26;17.24;;;;;;;11.52;50.17;100994.34;463124;114;930367;-80
2021/09/16 04:30:37;;;;;;;24.64;11.73;;;;;;;11.55;50.33;100996.64;464014;113;922766;-81
2021/09/16 04:31:41;;;;;;;31.58;8.99;;;;;;;11.58;50.42;101005.23;462547;114;930509;-80
2021/09/16 04:32:44;;;;;;;20.68;9.00;;;;;;;11.62;50.45;101002.95;462974;111;930571;-80
2021/09/16 04:33:48;;;;;;;23.54;9.16;;;;;;;11.65;50.52;101002.51;462888;113;923009;-81
2021/09/16 04:34:52;;;;;;;21.65;8.43;;;;;;;11.71;50.51;101001.67;462533;113;922779;-83
2021/09/16 04:35:55;;;;;;;19.48;7.91;;;;;;;11.76;50.50;100996.44;463616;114;925715;-80
2021/09/16 04:36:59;;;;;;;17.54;7.36;;;;;;;11.82;50.42;101006.52;462466;113;930430;-79
2021/09/16 04:38:03;;;;;;;42.64;8.52;;;;;;;11.87;50.22;101003.98;464182;113;922453;-79
2021/09/16 04:39:06;;;;;;;55.18;11.34;;;;;;;11.90;50.05;101006.31;461682;114;930354;-80
2021/09/16 04:40:11;;;;;;;18.26;8.11;;;;;;;11.91;49.91;101005.23;462646;112;925207;-81
2021/09/16 04:41:15;;;;;;;14.33;8.79;;;;;;;11.93;49.88;101005.02;461787;114;922509;-84
2021/09/16 04:42:18;;;;;;;23.41;7.42;;;;;;;11.94;49.88;101010.28;463760;112;922365;-84
2021/09/16 04:43:22;;;;;;;15.32;7.46;;;;;;;11.97;49.85;101007.11;464004;114;922628;-83
2021/09/16 04:44:26;;;;;;;18.59;8.50;;;;;;;11.99;49.88;101007.75;462368;114;922968;-82
2021/09/16 04:45:29;;;;;;;18.95;8.39;;;;;;;12.03;49.83;101013.62;464121;113;922789;-82
2021/09/16 04:46:33;;;;;;;22.13;13.98;;;;;;;12.06;49.79;101002.27;463620;113;922144;-84
2021/09/16 04:47:39;;;;;;;24.82;8.96;;;;;;;12.10;49.78;101007.09;455352;116;922052;-85
2021/09/16 04:48:42;;;;;;;27.12;9.59;;;;;;;12.15;49.67;101005.60;453718;115;922819;-84
2021/09/16 04:49:46;;;;;;;27.82;9.23;;;;;;;12.18;49.59;101005.19;456881;114;922406;-84